sensor_id;sensor_type;location;lat;lon;timestamp;temperature;humidity
16412;DHT22;8315;52.104;6.304;2023-03-03T00:00:42;2.50;98.40
16412;DHT22;8315;52.104;6.304;2023-03-03T00:03:10;2.40;98.40
16412;DHT22;8315;52.104;6.304;2023-03-03T00:05:38;2.30;98.40
16412;DHT22;8315;52.104;6.304;2023-03-03T00:08:05;2.20;98.40
16412;DHT22;8315;52.104;6.304;2023-03-03T00:10:32;2.20;98.40
16412;DHT22;8315;52.104;6.304;2023-03-03T00:12:58;2.10;98.40
16412;DHT22;8315;52.104;6.304;2023-03-03T00:15:25;2.10;98.40
16412;DHT22;8315;52.104;6.304;2023-03-03T00:17:54;2.10;98.40
16412;DHT22;8315;52.104;6.304;2023-03-03T00:20:26;2.10;98.40
16412;DHT22;8315;52.104;6.304;2023-03-03T00:22:56;2.20;98.40
16412;DHT22;8315;52.104;6.304;2023-03-03T00:25:27;2.10;98.40
16412;DHT22;8315;52.104;6.304;2023-03-03T00:27:54;2.10;98.40
16412;DHT22;8315;52.104;6.304;2023-03-03T00:30:22;2.20;98.40
16412;DHT22;8315;52.104;6.304;2023-03-03T00:32:50;2.20;98.40
16412;DHT22;8315;52.104;6.304;2023-03-03T00:35:22;2.20;98.40
16412;DHT22;8315;52.104;6.304;2023-03-03T00:37:52;2.10;98.40
16412;DHT22;8315;52.104;6.304;2023-03-03T00:40:21;2.10;98.40
16412;DHT22;8315;52.104;6.304;2023-03-03T00:42:50;2.10;98.40
16412;DHT22;8315;52.104;6.304;2023-03-03T00:45:22;2.10;98.40
16412;DHT22;8315;52.104;6.304;2023-03-03T00:47:52;2.40;98.40
16412;DHT22;8315;52.104;6.304;2023-03-03T00:50:26;2.50;98.40
16412;DHT22;8315;52.104;6.304;2023-03-03T00:52:58;2.40;98.40
16412;DHT22;8315;52.104;6.304;2023-03-03T00:55:27;2.30;98.40
16412;DHT22;8315;52.104;6.304;2023-03-03T00:57:54;2.30;98.40
16412;DHT22;8315;52.104;6.304;2023-03-03T01:00:26;2.40;98.40
16412;DHT22;8315;52.104;6.304;2023-03-03T01:02:54;2.50;98.40
16412;DHT22;8315;52.104;6.304;2023-03-03T01:05:21;2.50;98.40
16412;DHT22;8315;52.104;6.304;2023-03-03T01:07:49;2.50;98.40
16412;DHT22;8315;52.104;6.304;2023-03-03T01:10:16;2.60;98.40
16412;DHT22;8315;52.104;6.304;2023-03-03T01:12:43;2.70;98.40
16412;DHT22;8315;52.104;6.304;2023-03-03T01:15:10;2.60;98.40
16412;DHT22;8315;52.104;6.304;2023-03-03T01:17:39;2.40;98.40
16412;DHT22;8315;52.104;6.304;2023-03-03T01:20:07;2.50;98.40
16412;DHT22;8315;52.104;6.304;2023-03-03T01:22:36;2.40;98.40
16412;DHT22;8315;52.104;6.304;2023-03-03T01:25:04;2.50;98.40
16412;DHT22;8315;52.104;6.304;2023-03-03T01:27:32;2.70;98.40
16412;DHT22;8315;52.104;6.304;2023-03-03T01:30:00;2.50;98.40
16412;DHT22;8315;52.104;6.304;2023-03-03T01:32:27;2.40;98.40
16412;DHT22;8315;52.104;6.304;2023-03-03T01:34:54;2.20;98.40
16412;DHT22;8315;52.104;6.304;2023-03-03T01:37:21;2.10;98.40
16412;DHT22;8315;52.104;6.304;2023-03-03T01:39:48;2.20;98.40
16412;DHT22;8315;52.104;6.304;2023-03-03T01:42:16;2.10;98.40
16412;DHT22;8315;52.104;6.304;2023-03-03T01:44:44;2.00;98.40
16412;DHT22;8315;52.104;6.304;2023-03-03T01:47:11;2.10;98.40
16412;DHT22;8315;52.104;6.304;2023-03-03T01:49:39;2.20;98.40
16412;DHT22;8315;52.104;6.304;2023-03-03T01:52:10;2.30;98.40
16412;DHT22;8315;52.104;6.304;2023-03-03T01:54:40;2.20;98.40
16412;DHT22;8315;52.104;6.304;2023-03-03T01:57:09;2.20;98.40
16412;DHT22;8315;52.104;6.304;2023-03-03T01:59:41;2.10;98.40
16412;DHT22;8315;52.104;6.304;2023-03-03T02:02:09;2.40;98.40
16412;DHT22;8315;52.104;6.304;2023-03-03T02:04:36;2.60;98.40
16412;DHT22;8315;52.104;6.304;2023-03-03T02:07:04;2.60;98.40
16412;DHT22;8315;52.104;6.304;2023-03-03T02:09:36;2.40;98.40
16412;DHT22;8315;52.104;6.304;2023-03-03T02:12:07;2.40;98.40
16412;DHT22;8315;52.104;6.304;2023-03-03T02:14:37;2.50;98.40
16412;DHT22;8315;52.104;6.304;2023-03-03T02:17:06;2.40;98.40
16412;DHT22;8315;52.104;6.304;2023-03-03T02:19:34;2.40;98.40
16412;DHT22;8315;52.104;6.304;2023-03-03T02:22:05;2.30;98.40
16412;DHT22;8315;52.104;6.304;2023-03-03T02:24:34;2.20;98.40
16412;DHT22;8315;52.104;6.304;2023-03-03T02:27:06;2.30;98.40
16412;DHT22;8315;52.104;6.304;2023-03-03T02:29:33;2.30;98.40
16412;DHT22;8315;52.104;6.304;2023-03-03T02:32:01;2.50;98.40
16412;DHT22;8315;52.104;6.304;2023-03-03T02:34:28;2.70;98.40
16412;DHT22;8315;52.104;6.304;2023-03-03T02:36:55;2.70;98.40
16412;DHT22;8315;52.104;6.304;2023-03-03T02:39:23;2.60;98.40
16412;DHT22;8315;52.104;6.304;2023-03-03T02:41:52;2.60;98.40
16412;DHT22;8315;52.104;6.304;2023-03-03T02:44:26;2.60;98.40
16412;DHT22;8315;52.104;6.304;2023-03-03T02:46:54;2.60;98.40
16412;DHT22;8315;52.104;6.304;2023-03-03T02:49:22;2.60;98.40
16412;DHT22;8315;52.104;6.304;2023-03-03T02:51:50;2.70;98.40
16412;DHT22;8315;52.104;6.304;2023-03-03T02:54:18;2.80;98.40
16412;DHT22;8315;52.104;6.304;2023-03-03T02:56:46;2.80;98.40
16412;DHT22;8315;52.104;6.304;2023-03-03T02:59:13;2.60;98.40
16412;DHT22;8315;52.104;6.304;2023-03-03T03:01:46;2.70;98.40
16412;DHT22;8315;52.104;6.304;2023-03-03T03:04:17;2.70;98.40
16412;DHT22;8315;52.104;6.304;2023-03-03T03:06:48;2.80;98.40
16412;DHT22;8315;52.104;6.304;2023-03-03T03:09:16;2.90;98.40
16412;DHT22;8315;52.104;6.304;2023-03-03T03:11:45;3.00;98.40
16412;DHT22;8315;52.104;6.304;2023-03-03T03:14:14;2.90;98.40
16412;DHT22;8315;52.104;6.304;2023-03-03T03:16:42;2.90;98.40
16412;DHT22;8315;52.104;6.304;2023-03-03T03:19:11;2.90;98.40
16412;DHT22;8315;52.104;6.304;2023-03-03T03:21:39;2.80;98.40
16412;DHT22;8315;52.104;6.304;2023-03-03T03:24:07;2.80;98.40
16412;DHT22;8315;52.104;6.304;2023-03-03T03:26:36;2.90;98.40
16412;DHT22;8315;52.104;6.304;2023-03-03T03:29:03;2.80;98.40
16412;DHT22;8315;52.104;6.304;2023-03-03T03:31:30;2.80;98.40
16412;DHT22;8315;52.104;6.304;2023-03-03T03:33:58;3.00;98.40
16412;DHT22;8315;52.104;6.304;2023-03-03T03:36:28;3.00;98.40
16412;DHT22;8315;52.104;6.304;2023-03-03T03:38:55;3.20;98.40
16412;DHT22;8315;52.104;6.304;2023-03-03T03:41:22;3.00;98.40
16412;DHT22;8315;52.104;6.304;2023-03-03T03:43:49;2.90;98.40
16412;DHT22;8315;52.104;6.304;2023-03-03T03:46:16;3.00;98.40
16412;DHT22;8315;52.104;6.304;2023-03-03T03:48:43;3.00;98.40
16412;DHT22;8315;52.104;6.304;2023-03-03T03:51:12;2.80;98.40
16412;DHT22;8315;52.104;6.304;2023-03-03T03:53:41;2.80;98.40
16412;DHT22;8315;52.104;6.304;2023-03-03T03:56:08;2.90;98.40
16412;DHT22;8315;52.104;6.304;2023-03-03T03:58:35;3.00;98.40
16412;DHT22;8315;52.104;6.304;2023-03-03T04:01:06;3.00;98.40
16412;DHT22;8315;52.104;6.304;2023-03-03T04:03:39;2.80;98.40
16412;DHT22;8315;52.104;6.304;2023-03-03T04:06:09;2.90;98.40
16412;DHT22;8315;52.104;6.304;2023-03-03T04:08:37;2.90;98.40
16412;DHT22;8315;52.104;6.304;2023-03-03T04:11:05;3.00;98.40
16412;DHT22;8315;52.104;6.304;2023-03-03T04:13:32;3.00;98.40
16412;DHT22;8315;52.104;6.304;2023-03-03T04:16:00;3.00;98.40
16412;DHT22;8315;52.104;6.304;2023-03-03T04:18:27;3.20;98.40
16412;DHT22;8315;52.104;6.304;2023-03-03T04:20:54;3.10;98.40
16412;DHT22;8315;52.104;6.304;2023-03-03T04:23:21;3.10;98.40
16412;DHT22;8315;52.104;6.304;2023-03-03T04:25:48;3.10;98.40
16412;DHT22;8315;52.104;6.304;2023-03-03T04:28:16;3.20;98.40
16412;DHT22;8315;52.104;6.304;2023-03-03T04:30:44;3.20;98.40
16412;DHT22;8315;52.104;6.304;2023-03-03T04:33:13;3.20;98.40
16412;DHT22;8315;52.104;6.304;2023-03-03T04:35:40;3.20;98.40
16412;DHT22;8315;52.104;6.304;2023-03-03T04:38:07;3.20;98.40
16412;DHT22;8315;52.104;6.304;2023-03-03T04:40:35;3.20;98.40
16412;DHT22;8315;52.104;6.304;2023-03-03T04:43:02;3.10;98.40
16412;DHT22;8315;52.104;6.304;2023-03-03T04:45:30;3.10;98.40
16412;DHT22;8315;52.104;6.304;2023-03-03T04:47:57;3.20;98.40
16412;DHT22;8315;52.104;6.304;2023-03-03T04:50:24;3.20;98.40
16412;DHT22;8315;52.104;6.304;2023-03-03T04:52:52;3.20;98.40
16412;DHT22;8315;52.104;6.304;2023-03-03T04:55:20;3.20;98.40
16412;DHT22;8315;52.104;6.304;2023-03-03T04:57:47;3.20;98.40
16412;DHT22;8315;52.104;6.304;2023-03-03T05:00:14;3.10;98.40
16412;DHT22;8315;52.104;6.304;2023-03-03T05:02:43;3.20;98.40
16412;DHT22;8315;52.104;6.304;2023-03-03T05:05:11;3.30;98.40
16412;DHT22;8315;52.104;6.304;2023-03-03T05:07:39;3.20;98.40
16412;DHT22;8315;52.104;6.304;2023-03-03T05:10:06;3.20;98.40
16412;DHT22;8315;52.104;6.304;2023-03-03T05:12:34;3.00;98.40
16412;DHT22;8315;52.104;6.304;2023-03-03T05:15:00;3.00;98.40
16412;DHT22;8315;52.104;6.304;2023-03-03T05:17:27;2.90;98.40
16412;DHT22;8315;52.104;6.304;2023-03-03T05:19:55;2.80;98.40
16412;DHT22;8315;52.104;6.304;2023-03-03T05:22:22;2.90;98.40
16412;DHT22;8315;52.104;6.304;2023-03-03T05:24:49;3.00;98.40
16412;DHT22;8315;52.104;6.304;2023-03-03T05:27:16;3.20;98.40
16412;DHT22;8315;52.104;6.304;2023-03-03T05:29:43;3.20;98.40
16412;DHT22;8315;52.104;6.304;2023-03-03T05:32:11;3.00;98.40
16412;DHT22;8315;52.104;6.304;2023-03-03T05:34:37;3.10;98.40
16412;DHT22;8315;52.104;6.304;2023-03-03T05:37:06;3.10;98.40
16412;DHT22;8315;52.104;6.304;2023-03-03T05:39:33;3.00;98.40
16412;DHT22;8315;52.104;6.304;2023-03-03T05:42:00;3.10;98.40
16412;DHT22;8315;52.104;6.304;2023-03-03T05:44:26;3.10;98.40
16412;DHT22;8315;52.104;6.304;2023-03-03T05:46:53;3.10;98.40
16412;DHT22;8315;52.104;6.304;2023-03-03T05:49:22;3.10;98.40
16412;DHT22;8315;52.104;6.304;2023-03-03T05:51:48;3.30;98.40
16412;DHT22;8315;52.104;6.304;2023-03-03T05:54:17;3.30;98.40
16412;DHT22;8315;52.104;6.304;2023-03-03T05:56:43;3.20;98.40
16412;DHT22;8315;52.104;6.304;2023-03-03T05:59:10;3.20;98.40
16412;DHT22;8315;52.104;6.304;2023-03-03T06:01:37;3.10;98.40
16412;DHT22;8315;52.104;6.304;2023-03-03T06:04:04;3.00;98.40
16412;DHT22;8315;52.104;6.304;2023-03-03T06:06:31;2.80;98.40
16412;DHT22;8315;52.104;6.304;2023-03-03T06:08:57;2.90;98.40
16412;DHT22;8315;52.104;6.304;2023-03-03T06:11:26;2.80;98.40
16412;DHT22;8315;52.104;6.304;2023-03-03T06:13:52;2.90;98.40
16412;DHT22;8315;52.104;6.304;2023-03-03T06:16:19;3.00;98.40
16412;DHT22;8315;52.104;6.304;2023-03-03T06:18:46;3.00;98.40
16412;DHT22;8315;52.104;6.304;2023-03-03T06:21:13;2.90;98.40
16412;DHT22;8315;52.104;6.304;2023-03-03T06:23:40;2.90;98.40
16412;DHT22;8315;52.104;6.304;2023-03-03T06:26:07;2.90;98.40
16412;DHT22;8315;52.104;6.304;2023-03-03T06:28:35;2.90;98.40
16412;DHT22;8315;52.104;6.304;2023-03-03T06:31:02;2.90;98.40
16412;DHT22;8315;52.104;6.304;2023-03-03T06:33:29;3.10;98.40
16412;DHT22;8315;52.104;6.304;2023-03-03T06:35:56;3.00;98.40
16412;DHT22;8315;52.104;6.304;2023-03-03T06:38:23;2.90;98.40
16412;DHT22;8315;52.104;6.304;2023-03-03T06:40:49;3.00;98.40
16412;DHT22;8315;52.104;6.304;2023-03-03T06:43:16;3.10;98.40
16412;DHT22;8315;52.104;6.304;2023-03-03T06:45:45;3.00;98.40
16412;DHT22;8315;52.104;6.304;2023-03-03T06:48:11;3.20;98.40
16412;DHT22;8315;52.104;6.304;2023-03-03T06:50:38;3.30;98.40
16412;DHT22;8315;52.104;6.304;2023-03-03T06:53:09;3.10;98.40
16412;DHT22;8315;52.104;6.304;2023-03-03T06:55:37;3.10;98.40
16412;DHT22;8315;52.104;6.304;2023-03-03T06:58:07;2.90;98.40
16412;DHT22;8315;52.104;6.304;2023-03-03T07:00:36;3.10;98.40
16412;DHT22;8315;52.104;6.304;2023-03-03T07:03:07;3.20;98.40
16412;DHT22;8315;52.104;6.304;2023-03-03T07:05:37;3.00;98.40
16412;DHT22;8315;52.104;6.304;2023-03-03T07:08:05;3.00;98.40
16412;DHT22;8315;52.104;6.304;2023-03-03T07:10:35;2.90;98.40
16412;DHT22;8315;52.104;6.304;2023-03-03T07:13:11;2.80;98.40
16412;DHT22;8315;52.104;6.304;2023-03-03T07:15:42;2.80;98.40
16412;DHT22;8315;52.104;6.304;2023-03-03T07:18:22;2.90;98.40
16412;DHT22;8315;52.104;6.304;2023-03-03T07:20:58;2.80;98.40
16412;DHT22;8315;52.104;6.304;2023-03-03T07:23:25;2.70;98.40
16412;DHT22;8315;52.104;6.304;2023-03-03T07:25:53;2.70;98.40
16412;DHT22;8315;52.104;6.304;2023-03-03T07:28:21;2.80;98.40
16412;DHT22;8315;52.104;6.304;2023-03-03T07:30:49;2.80;98.40
16412;DHT22;8315;52.104;6.304;2023-03-03T07:33:21;2.70;98.40
16412;DHT22;8315;52.104;6.304;2023-03-03T07:35:51;2.80;98.40
16412;DHT22;8315;52.104;6.304;2023-03-03T07:38:22;2.90;98.40
16412;DHT22;8315;52.104;6.304;2023-03-03T07:40:51;2.90;98.40
16412;DHT22;8315;52.104;6.304;2023-03-03T07:43:26;2.90;98.40
16412;DHT22;8315;52.104;6.304;2023-03-03T07:45:57;2.90;98.40
16412;DHT22;8315;52.104;6.304;2023-03-03T07:48:30;3.00;98.40
16412;DHT22;8315;52.104;6.304;2023-03-03T07:51:02;3.00;98.40
16412;DHT22;8315;52.104;6.304;2023-03-03T07:53:33;3.10;98.40
16412;DHT22;8315;52.104;6.304;2023-03-03T07:56:02;3.00;98.40
16412;DHT22;8315;52.104;6.304;2023-03-03T07:58:38;3.00;98.40
16412;DHT22;8315;52.104;6.304;2023-03-03T08:04:10;3.20;98.40
16412;DHT22;8315;52.104;6.304;2023-03-03T08:06:43;3.30;98.40
16412;DHT22;8315;52.104;6.304;2023-03-03T08:09:31;3.40;98.40
16412;DHT22;8315;52.104;6.304;2023-03-03T08:12:11;3.40;98.40
16412;DHT22;8315;52.104;6.304;2023-03-03T08:14:55;3.20;98.40
16412;DHT22;8315;52.104;6.304;2023-03-03T08:17:34;3.20;98.40
16412;DHT22;8315;52.104;6.304;2023-03-03T08:20:05;3.30;98.40
16412;DHT22;8315;52.104;6.304;2023-03-03T08:22:36;3.40;98.40
16412;DHT22;8315;52.104;6.304;2023-03-03T08:25:04;3.40;98.40
16412;DHT22;8315;52.104;6.304;2023-03-03T08:27:31;3.60;98.40
16412;DHT22;8315;52.104;6.304;2023-03-03T08:29:57;3.50;98.40
16412;DHT22;8315;52.104;6.304;2023-03-03T08:32:24;3.40;98.40
16412;DHT22;8315;52.104;6.304;2023-03-03T08:34:51;3.50;98.40
16412;DHT22;8315;52.104;6.304;2023-03-03T08:37:20;3.40;98.40
16412;DHT22;8315;52.104;6.304;2023-03-03T08:39:46;3.50;98.40
16412;DHT22;8315;52.104;6.304;2023-03-03T08:42:13;3.70;98.40
16412;DHT22;8315;52.104;6.304;2023-03-03T08:44:40;3.70;98.40
16412;DHT22;8315;52.104;6.304;2023-03-03T08:47:07;3.60;98.40
16412;DHT22;8315;52.104;6.304;2023-03-03T08:49:34;3.70;98.40
16412;DHT22;8315;52.104;6.304;2023-03-03T08:52:01;3.80;98.40
16412;DHT22;8315;52.104;6.304;2023-03-03T08:54:29;3.80;98.40
16412;DHT22;8315;52.104;6.304;2023-03-03T08:56:56;3.80;98.40
16412;DHT22;8315;52.104;6.304;2023-03-03T08:59:23;3.80;98.40
16412;DHT22;8315;52.104;6.304;2023-03-03T09:01:50;3.90;98.40
16412;DHT22;8315;52.104;6.304;2023-03-03T09:04:17;4.00;98.40
16412;DHT22;8315;52.104;6.304;2023-03-03T09:06:43;3.80;98.40
16412;DHT22;8315;52.104;6.304;2023-03-03T09:09:10;3.70;98.40
16412;DHT22;8315;52.104;6.304;2023-03-03T09:11:38;3.80;98.40
16412;DHT22;8315;52.104;6.304;2023-03-03T09:14:09;3.80;98.40
16412;DHT22;8315;52.104;6.304;2023-03-03T09:16:37;3.80;98.40
16412;DHT22;8315;52.104;6.304;2023-03-03T09:19:15;4.00;98.40
16412;DHT22;8315;52.104;6.304;2023-03-03T09:21:44;4.00;98.40
16412;DHT22;8315;52.104;6.304;2023-03-03T09:24:14;4.00;98.40
16412;DHT22;8315;52.104;6.304;2023-03-03T09:26:46;4.00;98.40
16412;DHT22;8315;52.104;6.304;2023-03-03T09:29:16;4.30;98.40
16412;DHT22;8315;52.104;6.304;2023-03-03T09:31:47;4.80;98.40
16412;DHT22;8315;52.104;6.304;2023-03-03T09:34:17;5.10;98.40
16412;DHT22;8315;52.104;6.304;2023-03-03T09:36:46;5.30;98.40
16412;DHT22;8315;52.104;6.304;2023-03-03T09:39:15;5.40;98.40
16412;DHT22;8315;52.104;6.304;2023-03-03T09:44:56;5.40;98.40
16412;DHT22;8315;52.104;6.304;2023-03-03T09:47:40;5.40;98.40
16412;DHT22;8315;52.104;6.304;2023-03-03T09:50:16;5.30;98.40
16412;DHT22;8315;52.104;6.304;2023-03-03T09:52:53;5.30;98.40
16412;DHT22;8315;52.104;6.304;2023-03-03T09:55:31;5.30;98.40
16412;DHT22;8315;52.104;6.304;2023-03-03T09:58:11;5.20;98.40
16412;DHT22;8315;52.104;6.304;2023-03-03T10:00:48;5.10;98.40
16412;DHT22;8315;52.104;6.304;2023-03-03T10:03:30;5.40;98.40
16412;DHT22;8315;52.104;6.304;2023-03-03T10:06:21;5.50;98.40
16412;DHT22;8315;52.104;6.304;2023-03-03T10:08:54;5.60;98.40
16412;DHT22;8315;52.104;6.304;2023-03-03T10:11:29;5.60;98.40
16412;DHT22;8315;52.104;6.304;2023-03-03T10:14:08;5.80;98.40
16412;DHT22;8315;52.104;6.304;2023-03-03T10:16:59;5.70;98.40
16412;DHT22;8315;52.104;6.304;2023-03-03T10:19:35;5.90;98.40
16412;DHT22;8315;52.104;6.304;2023-03-03T10:22:06;6.00;98.40
16412;DHT22;8315;52.104;6.304;2023-03-03T10:24:45;6.20;98.40
16412;DHT22;8315;52.104;6.304;2023-03-03T10:27:24;6.20;98.40
16412;DHT22;8315;52.104;6.304;2023-03-03T10:29:59;6.20;98.40
16412;DHT22;8315;52.104;6.304;2023-03-03T10:32:31;6.40;98.40
16412;DHT22;8315;52.104;6.304;2023-03-03T10:35:11;6.90;98.40
16412;DHT22;8315;52.104;6.304;2023-03-03T10:38:01;7.00;98.40
16412;DHT22;8315;52.104;6.304;2023-03-03T10:40:39;6.70;98.40
16412;DHT22;8315;52.104;6.304;2023-03-03T10:48:52;7.30;98.40
16412;DHT22;8315;52.104;6.304;2023-03-03T10:51:25;7.10;98.40
16412;DHT22;8315;52.104;6.304;2023-03-03T10:53:59;7.10;98.40
16412;DHT22;8315;52.104;6.304;2023-03-03T10:56:36;7.50;98.40
16412;DHT22;8315;52.104;6.304;2023-03-03T10:59:13;7.50;98.40
16412;DHT22;8315;52.104;6.304;2023-03-03T11:01:55;7.60;98.40
16412;DHT22;8315;52.104;6.304;2023-03-03T11:04:38;7.60;98.40
16412;DHT22;8315;52.104;6.304;2023-03-03T11:07:10;7.70;98.40
16412;DHT22;8315;52.104;6.304;2023-03-03T11:09:43;8.00;98.40
16412;DHT22;8315;52.104;6.304;2023-03-03T11:12:23;8.00;98.40
16412;DHT22;8315;52.104;6.304;2023-03-03T11:14:58;8.10;98.40
16412;DHT22;8315;52.104;6.304;2023-03-03T11:17:38;8.20;98.40
16412;DHT22;8315;52.104;6.304;2023-03-03T11:20:17;8.30;98.40
16412;DHT22;8315;52.104;6.304;2023-03-03T11:22:51;8.20;98.40
16412;DHT22;8315;52.104;6.304;2023-03-03T11:25:25;8.50;98.40
16412;DHT22;8315;52.104;6.304;2023-03-03T11:27:59;8.70;98.40
16412;DHT22;8315;52.104;6.304;2023-03-03T11:30:39;8.80;98.40
16412;DHT22;8315;52.104;6.304;2023-03-03T11:33:13;8.60;98.40
16412;DHT22;8315;52.104;6.304;2023-03-03T11:35:45;8.60;98.40
16412;DHT22;8315;52.104;6.304;2023-03-03T11:38:29;8.70;98.40
16412;DHT22;8315;52.104;6.304;2023-03-03T11:41:03;8.90;98.40
16412;DHT22;8315;52.104;6.304;2023-03-03T11:43:36;9.00;98.40
16412;DHT22;8315;52.104;6.304;2023-03-03T11:46:06;9.10;98.40
16412;DHT22;8315;52.104;6.304;2023-03-03T11:48:38;9.30;98.40
16412;DHT22;8315;52.104;6.304;2023-03-03T11:51:11;9.30;98.40
16412;DHT22;8315;52.104;6.304;2023-03-03T11:53:44;9.20;98.40
16412;DHT22;8315;52.104;6.304;2023-03-03T11:56:21;9.60;98.40
16412;DHT22;8315;52.104;6.304;2023-03-03T11:58:51;9.70;98.40
16412;DHT22;8315;52.104;6.304;2023-03-03T12:01:25;9.70;98.40
16412;DHT22;8315;52.104;6.304;2023-03-03T12:03:57;9.60;98.40
16412;DHT22;8315;52.104;6.304;2023-03-03T12:06:29;9.50;98.40
16412;DHT22;8315;52.104;6.304;2023-03-03T12:09:05;9.30;98.40
16412;DHT22;8315;52.104;6.304;2023-03-03T12:11:38;9.40;98.40
16412;DHT22;8315;52.104;6.304;2023-03-03T12:14:16;9.60;98.40
16412;DHT22;8315;52.104;6.304;2023-03-03T12:17:14;9.60;98.40
16412;DHT22;8315;52.104;6.304;2023-03-03T12:19:52;9.80;97.90
16412;DHT22;8315;52.104;6.304;2023-03-03T12:22:31;10.10;97.30
16412;DHT22;8315;52.104;6.304;2023-03-03T12:27:49;10.20;98.40
16412;DHT22;8315;52.104;6.304;2023-03-03T12:30:22;10.50;97.60
16412;DHT22;8315;52.104;6.304;2023-03-03T12:33:01;10.30;96.90
16412;DHT22;8315;52.104;6.304;2023-03-03T12:35:38;9.90;97.20
16412;DHT22;8315;52.104;6.304;2023-03-03T12:38:10;10.30;97.10
16412;DHT22;8315;52.104;6.304;2023-03-03T12:40:43;10.30;95.90
16412;DHT22;8315;52.104;6.304;2023-03-03T12:43:15;10.40;94.90
16412;DHT22;8315;52.104;6.304;2023-03-03T12:45:50;10.70;95.70
16412;DHT22;8315;52.104;6.304;2023-03-03T12:48:23;11.20;94.70
16412;DHT22;8315;52.104;6.304;2023-03-03T12:50:56;11.30;93.50
16412;DHT22;8315;52.104;6.304;2023-03-03T12:53:33;11.60;92.00
16412;DHT22;8315;52.104;6.304;2023-03-03T12:56:09;11.20;91.10
16412;DHT22;8315;52.104;6.304;2023-03-03T12:58:46;11.10;91.50
16412;DHT22;8315;52.104;6.304;2023-03-03T13:01:27;11.40;91.90
16412;DHT22;8315;52.104;6.304;2023-03-03T13:04:02;11.60;90.80
16412;DHT22;8315;52.104;6.304;2023-03-03T13:06:34;11.50;91.60
16412;DHT22;8315;52.104;6.304;2023-03-03T13:09:07;11.30;92.10
16412;DHT22;8315;52.104;6.304;2023-03-03T13:14:31;10.80;93.90
16412;DHT22;8315;52.104;6.304;2023-03-03T13:17:03;10.50;94.90
16412;DHT22;8315;52.104;6.304;2023-03-03T13:19:36;10.50;94.90
16412;DHT22;8315;52.104;6.304;2023-03-03T13:22:08;10.40;93.40
16412;DHT22;8315;52.104;6.304;2023-03-03T13:24:38;10.40;94.00
16412;DHT22;8315;52.104;6.304;2023-03-03T13:27:10;10.40;94.80
16412;DHT22;8315;52.104;6.304;2023-03-03T13:29:39;10.60;94.40
16412;DHT22;8315;52.104;6.304;2023-03-03T13:32:07;10.80;93.00
16412;DHT22;8315;52.104;6.304;2023-03-03T13:34:39;10.30;93.40
16412;DHT22;8315;52.104;6.304;2023-03-03T13:37:12;10.30;95.10
16412;DHT22;8315;52.104;6.304;2023-03-03T13:39:42;10.20;93.90
16412;DHT22;8315;52.104;6.304;2023-03-03T13:42:16;10.10;94.70
16412;DHT22;8315;52.104;6.304;2023-03-03T13:44:45;10.20;95.10
16412;DHT22;8315;52.104;6.304;2023-03-03T13:47:15;10.10;95.00
16412;DHT22;8315;52.104;6.304;2023-03-03T13:49:52;10.10;94.70
16412;DHT22;8315;52.104;6.304;2023-03-03T13:52:27;10.10;95.00
16412;DHT22;8315;52.104;6.304;2023-03-03T13:54:58;10.10;94.60
16412;DHT22;8315;52.104;6.304;2023-03-03T13:57:44;9.90;95.30
16412;DHT22;8315;52.104;6.304;2023-03-03T14:00:29;9.80;95.50
16412;DHT22;8315;52.104;6.304;2023-03-03T14:06:14;9.70;94.40
16412;DHT22;8315;52.104;6.304;2023-03-03T14:08:47;9.80;94.00
16412;DHT22;8315;52.104;6.304;2023-03-03T14:11:36;9.80;94.60
16412;DHT22;8315;52.104;6.304;2023-03-03T14:14:11;9.70;95.60
16412;DHT22;8315;52.104;6.304;2023-03-03T14:16:47;9.40;96.70
16412;DHT22;8315;52.104;6.304;2023-03-03T14:19:17;9.30;97.90
16412;DHT22;8315;52.104;6.304;2023-03-03T14:21:49;9.40;97.30
16412;DHT22;8315;52.104;6.304;2023-03-03T14:24:27;9.20;98.00
16412;DHT22;8315;52.104;6.304;2023-03-03T14:26:54;9.20;98.40
16412;DHT22;8315;52.104;6.304;2023-03-03T14:29:28;9.20;98.10
16412;DHT22;8315;52.104;6.304;2023-03-03T14:31:57;9.30;98.40
16412;DHT22;8315;52.104;6.304;2023-03-03T14:34:29;9.40;98.40
16412;DHT22;8315;52.104;6.304;2023-03-03T14:37:18;9.50;97.40
16412;DHT22;8315;52.104;6.304;2023-03-03T14:39:58;9.40;97.60
16412;DHT22;8315;52.104;6.304;2023-03-03T14:42:32;9.30;97.70
16412;DHT22;8315;52.104;6.304;2023-03-03T14:45:01;9.30;98.00
16412;DHT22;8315;52.104;6.304;2023-03-03T14:47:42;9.40;97.80
16412;DHT22;8315;52.104;6.304;2023-03-03T14:50:27;9.40;97.60
16412;DHT22;8315;52.104;6.304;2023-03-03T14:53:05;9.20;97.90
16412;DHT22;8315;52.104;6.304;2023-03-03T14:55:42;9.30;98.00
16412;DHT22;8315;52.104;6.304;2023-03-03T14:58:27;9.20;97.70
16412;DHT22;8315;52.104;6.304;2023-03-03T15:01:08;9.20;97.90
16412;DHT22;8315;52.104;6.304;2023-03-03T15:03:43;9.20;98.00
16412;DHT22;8315;52.104;6.304;2023-03-03T15:06:12;9.20;97.60
16412;DHT22;8315;52.104;6.304;2023-03-03T15:09:20;9.10;98.40
16412;DHT22;8315;52.104;6.304;2023-03-03T15:11:52;9.20;98.40
16412;DHT22;8315;52.104;6.304;2023-03-03T15:14:20;9.30;98.40
16412;DHT22;8315;52.104;6.304;2023-03-03T15:16:50;9.30;98.40
16412;DHT22;8315;52.104;6.304;2023-03-03T15:19:24;9.30;98.40
16412;DHT22;8315;52.104;6.304;2023-03-03T15:22:02;9.30;98.10
16412;DHT22;8315;52.104;6.304;2023-03-03T15:24:37;9.20;97.50
16412;DHT22;8315;52.104;6.304;2023-03-03T15:27:09;9.20;97.60
16412;DHT22;8315;52.104;6.304;2023-03-03T15:29:39;9.20;97.60
16412;DHT22;8315;52.104;6.304;2023-03-03T15:32:10;9.40;97.70
16412;DHT22;8315;52.104;6.304;2023-03-03T15:34:42;9.50;97.40
16412;DHT22;8315;52.104;6.304;2023-03-03T15:37:17;9.40;97.30
16412;DHT22;8315;52.104;6.304;2023-03-03T15:39:55;9.20;98.00
16412;DHT22;8315;52.104;6.304;2023-03-03T15:42:29;9.10;98.20
16412;DHT22;8315;52.104;6.304;2023-03-03T15:45:01;9.10;98.40
16412;DHT22;8315;52.104;6.304;2023-03-03T15:47:40;9.10;98.40
16412;DHT22;8315;52.104;6.304;2023-03-03T15:50:20;9.00;98.40
16412;DHT22;8315;52.104;6.304;2023-03-03T15:52:55;9.10;98.40
16412;DHT22;8315;52.104;6.304;2023-03-03T15:55:31;9.10;98.40
16412;DHT22;8315;52.104;6.304;2023-03-03T15:58:14;9.10;98.40
16412;DHT22;8315;52.104;6.304;2023-03-03T16:00:52;9.10;98.40
16412;DHT22;8315;52.104;6.304;2023-03-03T16:03:25;9.10;98.40
16412;DHT22;8315;52.104;6.304;2023-03-03T16:05:54;9.10;98.40
16412;DHT22;8315;52.104;6.304;2023-03-03T16:08:23;9.10;98.40
16412;DHT22;8315;52.104;6.304;2023-03-03T16:10:56;9.00;98.20
16412;DHT22;8315;52.104;6.304;2023-03-03T16:13:34;9.00;98.20
16412;DHT22;8315;52.104;6.304;2023-03-03T16:16:11;8.90;98.10
16412;DHT22;8315;52.104;6.304;2023-03-03T16:18:47;8.90;98.00
16412;DHT22;8315;52.104;6.304;2023-03-03T16:21:21;8.90;98.10
16412;DHT22;8315;52.104;6.304;2023-03-03T16:23:51;9.00;98.40
16412;DHT22;8315;52.104;6.304;2023-03-03T16:26:25;8.90;98.40
16412;DHT22;8315;52.104;6.304;2023-03-03T16:29:03;8.90;98.40
16412;DHT22;8315;52.104;6.304;2023-03-03T16:31:46;8.80;98.40
16412;DHT22;8315;52.104;6.304;2023-03-03T16:34:16;8.80;98.40
16412;DHT22;8315;52.104;6.304;2023-03-03T16:36:50;8.70;98.40
16412;DHT22;8315;52.104;6.304;2023-03-03T16:39:21;8.80;98.40
16412;DHT22;8315;52.104;6.304;2023-03-03T16:41:54;8.80;98.40
16412;DHT22;8315;52.104;6.304;2023-03-03T16:44:31;8.70;98.40
16412;DHT22;8315;52.104;6.304;2023-03-03T16:47:06;8.80;98.40